Time;durP1;ratioP1;P1;durP2;ratioP2;P2;SDS_P1;SDS_P2;PMS_P1;PMS_P2;Temp;Humidity;BMP_temperature;BMP_pressure;BME280_temperature;BME280_humidity;BME280_pressure;Samples;Min_cycle;Max_cycle;Signal;HPM_P1;HPM_P2
2021/03/14 00:01:39;;;;;;;3.57;1.23;;;4.50;99.90;;;;;;6040648;23;20427;-88
2021/03/14 00:05:15;;;;;;;3.23;1.70;;;4.50;99.90;;;;;;6138955;23;20413;-88
2021/03/14 00:08:41;;;;;;;5.60;1.83;;;4.60;99.90;;;;;;6096871;23;20445;-89
2021/03/14 00:18:50;;;;;;;4.57;1.40;;;4.70;99.90;;;;;;6036776;23;20445;-89
2021/03/14 00:21:22;;;;;;;5.00;2.13;;;4.50;99.90;;;;;;6112504;23;20484;-88
2021/03/14 00:28:19;;;;;;;4.80;1.80;;;4.50;99.90;;;;;;5886514;24;20417;-89
2021/03/14 00:32:11;;;;;;;7.23;2.03;;;4.50;99.90;;;;;;5912239;24;20865;-89
2021/03/14 00:34:49;;;;;;;6.80;2.50;;;4.50;99.90;;;;;;6070179;23;20417;-90
2021/03/14 00:37:53;;;;;;;2.83;1.30;;;4.60;99.90;;;;;;6114451;23;20408;-89
2021/03/14 00:40:58;;;;;;;4.93;1.60;;;4.50;99.90;;;;;;6114184;23;20441;-89
2021/03/14 00:44:11;;;;;;;6.50;2.07;;;4.50;99.90;;;;;;6138009;23;20421;-89
2021/03/14 00:46:46;;;;;;;6.00;1.90;;;4.50;99.90;;;;;;6115351;23;20405;-89
2021/03/14 00:53:21;;;;;;;7.53;1.40;;;4.60;99.90;;;;;;5999389;23;20503;-89
2021/03/14 00:55:59;;;;;;;4.40;1.67;;;4.50;99.90;;;;;;6140555;23;20441;-89
2021/03/14 00:58:27;;;;;;;5.60;1.70;;;4.80;99.90;;;;;;6113756;23;20418;-88
2021/03/14 01:00:59;;;;;;;6.20;1.80;;;4.70;99.90;;;;;;6112967;23;20178;-88
2021/03/14 01:04:01;;;;;;;3.83;1.23;;;4.70;99.90;;;;;;6112819;23;20428;-88
2021/03/14 01:07:14;;;;;;;7.22;1.70;;;4.70;99.90;;;;;;6129192;23;20433;-88
2021/03/14 01:09:56;;;;;;;2.10;1.40;;;4.90;99.90;;;;;;6137251;23;20169;-88
2021/03/14 01:12:24;;;;;;;4.10;1.27;;;4.70;99.90;;;;;;6112465;23;20417;-88
2021/03/14 01:15:01;;;;;;;3.10;1.30;;;4.70;99.90;;;;;;6136015;23;20405;-88
2021/03/14 01:18:37;;;;;;;2.50;1.37;;;4.70;99.90;;;;;;6106439;23;20492;-87
2021/03/14 01:21:36;;;;;;;4.73;1.70;;;4.60;99.90;;;;;;6029691;23;20460;-88
2021/03/14 01:24:05;;;;;;;2.90;1.57;;;4.60;99.90;;;;;;6103060;23;20418;-88
2021/03/14 01:26:43;;;;;;;3.30;1.60;;;4.70;99.90;;;;;;6110864;23;20468;-87
2021/03/14 01:29:14;;;;;;;5.77;1.53;;;4.70;99.90;;;;;;6111547;23;20513;-88
2021/03/14 01:31:44;;;;;;;4.37;1.50;;;4.60;99.90;;;;;;6137251;23;20414;-89
2021/03/14 01:34:14;;;;;;;7.10;1.77;;;4.70;99.90;;;;;;6137189;23;20955;-88
2021/03/14 01:36:58;;;;;;;;;;;;;;;;;;;;;
2021/03/14 01:40:02;;;;;;;4.10;1.47;;;4.70;99.90;;;;;;6087423;23;20809;-88
2021/03/14 01:43:04;;;;;;;;;;;;;;;;;;;;;
2021/03/14 01:49:39;;;;;;;3.27;1.57;;;4.70;99.90;;;;;;5968138;24;20869;-88
2021/03/14 01:52:19;;;;;;;3.43;1.20;;;4.70;99.90;;;;;;5990808;24;20451;-88
2021/03/14 01:55:16;;;;;;;3.00;0.90;;;4.70;99.90;;;;;;5990859;24;20414;-88
2021/03/14 02:01:39;;;;;;;2.53;1.60;;;4.60;99.90;;;;;;5916846;24;20426;-88
2021/03/14 02:04:24;;;;;;;6.03;1.37;;;4.70;99.90;;;;;;5992868;24;20509;-90
2021/03/14 02:10:55;;;;;;;6.27;2.33;;;4.60;99.90;;;;;;5946657;24;20426;-88
2021/03/14 02:13:37;;;;;;;2.20;1.53;;;4.60;99.90;;;;;;5991564;24;20454;-88
2021/03/14 02:16:37;;;;;;;4.83;1.60;;;4.60;99.90;;;;;;5991599;24;20501;-88
2021/03/14 02:19:11;;;;;;;2.50;1.30;;;4.80;99.90;;;;;;5989265;24;20856;-88
2021/03/14 02:25:26;;;;;;;1.50;1.03;;;4.50;99.90;;;;;;5944570;24;20458;-87
2021/03/14 02:27:58;;;;;;;1.77;1.10;;;4.50;99.90;;;;;;5936783;24;20747;-87
2021/03/14 02:30:28;;;;;;;1.80;1.40;;;4.50;99.90;;;;;;5974499;23;20430;-87
2021/03/14 02:32:59;;;;;;;2.73;1.50;;;4.50;99.90;;;;;;6051961;23;20463;-87
2021/03/14 02:35:29;;;;;;;3.90;1.80;;;4.50;99.90;;;;;;6052357;23;20439;-88
2021/03/14 02:37:56;;;;;;;2.97;1.10;;;4.40;99.90;;;;;;6051222;23;20467;-88
2021/03/14 02:40:29;;;;;;;4.30;1.20;;;4.40;99.90;;;;;;6054849;23;20422;-89
2021/03/14 02:42:58;;;;;;;3.60;1.20;;;4.40;99.90;;;;;;6054582;23;20447;-88
2021/03/14 02:45:27;;;;;;;2.83;1.30;;;4.40;99.90;;;;;;6053795;23;20419;-88
2021/03/14 02:47:56;;;;;;;2.40;1.00;;;4.40;99.90;;;;;;6051692;23;20435;-88
2021/03/14 02:50:24;;;;;;;4.87;1.40;;;4.40;99.90;;;;;;6052155;23;20423;-87
2021/03/14 02:53:01;;;;;;;4.60;1.43;;;4.40;99.90;;;;;;6053776;23;20419;-89
2021/03/14 02:55:28;;;;;;;2.50;1.20;;;4.30;99.90;;;;;;6106488;23;20425;-89
2021/03/14 02:57:58;;;;;;;2.50;1.67;;;4.30;99.90;;;;;;6112659;23;20780;-88
2021/03/14 03:00:27;;;;;;;2.13;1.20;;;4.30;99.90;;;;;;6113722;23;20525;-88
2021/03/14 03:03:04;;;;;;;2.23;1.30;;;4.30;99.90;;;;;;6136705;23;20420;-88
2021/03/14 03:05:37;;;;;;;3.00;1.30;;;4.30;99.90;;;;;;6111786;23;20880;-88
2021/03/14 03:08:41;;;;;;;1.73;0.90;;;4.30;99.90;;;;;;6019255;23;20524;-88
2021/03/14 03:11:14;;;;;;;3.27;1.03;;;4.20;99.90;;;;;;6019898;23;20428;-88
2021/03/14 03:25:13;;;;;;;2.43;1.00;;;4.20;99.90;;;;;;5815089;24;20471;-88
2021/03/14 03:28:18;;;;;;;1.53;0.70;;;4.20;99.90;;;;;;5891816;24;20441;-88
2021/03/14 03:31:07;;;;;;;3.77;0.70;;;4.30;99.90;;;;;;5940166;24;20418;-88
2021/03/14 03:33:39;;;;;;;2.83;0.93;;;4.20;99.90;;;;;;5938497;24;20442;-88
2021/03/14 03:36:45;;;;;;;;;;;;;;;;;;;;;
2021/03/14 03:39:33;;;;;;;1.83;0.80;;;4.20;99.90;;;;;;5997419;23;20437;-88
2021/03/14 03:43:06;;;;;;;;;;;;;;;;;;;;;
2021/03/14 03:49:16;;;;;;;2.40;0.67;;;4.30;99.90;;;;;;6109766;23;20468;-87
2021/03/14 03:56:02;;;;;;;2.30;0.93;;;4.30;99.90;;;;;;5974356;23;20441;-87
2021/03/14 03:58:36;;;;;;;3.00;0.80;;;4.30;99.90;;;;;;5994991;23;20464;-88
2021/03/14 04:01:17;;;;;;;2.63;0.70;;;4.30;99.90;;;;;;5995615;23;20428;-89
2021/03/14 04:04:05;;;;;;;3.43;0.73;;;4.30;99.90;;;;;;5997021;23;20433;-88
2021/03/14 04:10:34;;;;;;;1.80;0.70;;;4.50;99.90;;;;;;5907763;24;20429;-87
2021/03/14 04:13:09;;;;;;;2.80;0.87;;;4.40;99.90;;;;;;5890387;23;20423;-87
2021/03/14 04:19:11;;;;;;;1.67;0.80;;;4.40;99.90;;;;;;6020702;23;20420;-88
2021/03/14 04:21:56;;;;;;;2.23;0.80;;;4.50;99.90;;;;;;5996769;23;20427;-88
2021/03/14 04:24:27;;;;;;;1.87;0.60;;;4.40;99.90;;;;;;6027851;23;20420;-88
2021/03/14 04:30:52;;;;;;;4.30;1.17;;;4.50;99.90;;;;;;5910966;24;20423;-87
2021/03/14 04:33:21;;;;;;;2.17;0.70;;;4.50;99.90;;;;;;5990812;23;20440;-88
2021/03/14 04:35:50;;;;;;;3.47;0.97;;;4.50;99.90;;;;;;5995856;23;20436;-88
2021/03/14 04:38:18;;;;;;;2.40;1.00;;;4.50;99.90;;;;;;5997064;23;20497;-89
2021/03/14 04:40:56;;;;;;;0.80;0.50;;;4.50;99.90;;;;;;6028794;23;20420;-87
2021/03/14 04:43:52;;;;;;;1.53;0.70;;;4.60;99.90;;;;;;5996002;23;20766;-87
2021/03/14 04:46:25;;;;;;;2.30;0.60;;;4.60;99.90;;;;;;5999465;23;20461;-86
2021/03/14 04:49:46;;;;;;;2.60;1.60;;;4.60;99.90;;;;;;6137994;23;20488;-88
2021/03/14 04:53:11;;;;;;;4.73;1.00;;;4.60;99.90;;;;;;6113934;23;20471;-87
2021/03/14 05:02:58;;;;;;;5.27;1.80;;;4.80;99.90;;;;;;5994048;23;20421;-87
2021/03/14 05:06:41;;;;;;;;;;;;;;;;;;;;;
2021/03/14 05:09:27;;;;;;;6.30;2.60;;;4.70;99.90;;;;;;5944766;24;20438;-87
2021/03/14 05:11:56;;;;;;;7.97;2.50;;;5.00;99.90;;;;;;5912520;24;20428;-87
2021/03/14 05:14:25;;;;;;;7.10;2.73;;;4.80;99.90;;;;;;5912986;24;20838;-87
2021/03/14 05:16:55;;;;;;;9.57;3.67;;;4.90;99.90;;;;;;6013844;23;20440;-87
2021/03/14 05:19:24;;;;;;;7.90;3.00;;;4.90;99.90;;;;;;6023391;23;20450;-87
2021/03/14 05:22:18;;;;;;;7.40;3.47;;;4.90;99.90;;;;;;6023079;23;20424;-87
2021/03/14 05:24:50;;;;;;;8.77;3.50;;;5.10;99.90;;;;;;6023691;23;20467;-87
2021/03/14 05:34:18;;;;;;;10.83;3.33;;;5.00;99.90;;;;;;5865656;24;20462;-87
2021/03/14 05:36:46;;;;;;;4.40;3.07;;;5.00;99.90;;;;;;5964843;24;20441;-87
2021/03/14 05:39:14;;;;;;;11.50;3.20;;;5.00;99.90;;;;;;5966294;24;20946;-87
2021/03/14 05:42:23;;;;;;;12.03;3.30;;;5.00;99.90;;;;;;5998955;24;20407;-87
2021/03/14 05:46:11;;;;;;;10.20;3.40;;;5.00;99.90;;;;;;5883323;24;20932;-87
2021/03/14 05:48:49;;;;;;;8.47;3.60;;;5.00;99.90;;;;;;5919753;24;20446;-87
2021/03/14 05:51:50;;;;;;;10.77;3.63;;;5.00;99.90;;;;;;5965960;24;20424;-88
2021/03/14 06:01:01;;;;;;;9.97;4.63;;;5.00;99.90;;;;;;5835664;24;20436;-87
2021/03/14 06:06:52;;;;;;;9.97;3.50;;;5.10;99.90;;;;;;6043061;23;20954;-87
2021/03/14 06:09:19;;;;;;;14.23;4.37;;;5.10;99.90;;;;;;6046765;23;20864;-88
2021/03/14 06:15:24;;;;;;;10.18;3.78;;;5.20;99.90;;;;;;5824875;24;20980;-88
2021/03/14 06:18:03;;;;;;;8.73;3.57;;;5.40;99.90;;;;;;5925655;24;20209;-88
2021/03/14 06:20:38;;;;;;;12.77;4.00;;;5.40;99.90;;;;;;5966170;23;20785;-88
2021/03/14 06:23:39;;;;;;;6.03;2.20;;;5.40;99.90;;;;;;6033530;23;20425;-88
2021/03/14 06:26:17;;;;;;;4.40;1.83;;;5.40;99.90;;;;;;6108118;23;20165;-89
2021/03/14 06:28:44;;;;;;;4.30;2.03;;;5.30;99.90;;;;;;6132514;23;20492;-88
2021/03/14 06:31:19;;;;;;;6.70;1.90;;;5.30;99.90;;;;;;6108864;23;20416;-87
2021/03/14 06:33:47;;;;;;;3.50;2.00;;;5.10;99.90;;;;;;6104483;23;20912;-86
2021/03/14 06:36:16;;;;;;;3.13;1.80;;;5.10;99.90;;;;;;6106286;23;20444;-87
2021/03/14 06:38:44;;;;;;;4.50;1.77;;;5.00;99.90;;;;;;6108056;23;20492;-87
2021/03/14 06:41:14;;;;;;;5.00;2.10;;;5.00;99.90;;;;;;6132664;23;20432;-87
2021/03/14 06:43:44;;;;;;;5.30;2.30;;;4.90;99.90;;;;;;6108245;23;20419;-87
2021/03/14 06:46:24;;;;;;;9.10;2.20;;;4.90;99.90;;;;;;6107592;23;20889;-87
2021/03/14 06:49:09;;;;;;;4.40;2.10;;;4.90;99.90;;;;;;6107942;23;20520;-88
2021/03/14 06:51:41;;;;;;;5.27;2.87;;;4.90;99.90;;;;;;6108614;23;20409;-87
2021/03/14 06:54:21;;;;;;;6.70;2.80;;;4.90;99.90;;;;;;6108520;23;20429;-87
2021/03/14 07:08:40;;;;;;;9.43;4.90;;;5.00;99.90;;;;;;5933620;24;20443;-87
2021/03/14 07:11:33;;;;;;;13.10;4.40;;;5.10;99.90;;;;;;6027626;23;20522;-87
2021/03/14 07:21:38;;;;;;;12.20;5.00;;;5.40;99.90;;;;;;5954560;24;20422;-87
2021/03/14 07:24:31;;;;;;;10.87;4.90;;;5.40;99.90;;;;;;5998517;24;20446;-88
2021/03/14 07:34:09;;;;;;;11.70;4.83;;;5.70;99.90;;;;;;6073167;23;20424;-87
2021/03/14 07:36:39;;;;;;;14.47;4.90;;;5.70;99.90;;;;;;6051551;23;20429;-87
2021/03/14 07:39:07;;;;;;;16.87;5.50;;;5.80;99.90;;;;;;6108171;23;20475;-87
2021/03/14 07:41:35;;;;;;;9.67;4.40;;;5.80;99.90;;;;;;6108341;23;20418;-86
2021/03/14 07:44:19;;;;;;;10.30;4.43;;;5.90;99.90;;;;;;6146921;23;20382;-87
2021/03/14 07:47:49;;;;;;;12.50;4.47;;;5.90;99.90;;;;;;6017476;23;20442;-86
2021/03/14 07:50:24;;;;;;;12.07;4.80;;;6.00;99.90;;;;;;5990845;23;20729;-87
2021/03/14 07:52:56;;;;;;;10.50;4.23;;;6.20;99.90;;;;;;6018890;23;20413;-87
2021/03/14 07:55:27;;;;;;;9.90;4.20;;;6.10;99.90;;;;;;6018172;23;20421;-87
2021/03/14 07:57:55;;;;;;;15.53;5.33;;;6.10;99.90;;;;;;6018285;23;20488;-88
2021/03/14 08:00:35;;;;;;;10.53;4.30;;;6.10;99.90;;;;;;6017564;23;20500;-87
2021/03/14 08:03:05;;;;;;;8.50;4.30;;;6.20;99.90;;;;;;6025658;23;20418;-87
2021/03/14 08:05:47;;;;;;;14.20;5.20;;;6.20;99.90;;;;;;6108249;23;20413;-87
2021/03/14 08:08:45;;;;;;;11.97;4.93;;;6.20;99.90;;;;;;6105035;23;20768;-87
2021/03/14 08:11:30;;;;;;;8.93;4.63;;;6.30;99.90;;;;;;6104983;23;20446;-87
2021/03/14 08:13:58;;;;;;;10.23;5.10;;;6.30;99.90;;;;;;6105972;23;20420;-87
2021/03/14 08:16:27;;;;;;;13.20;5.33;;;6.40;99.90;;;;;;6129947;23;20436;-87
2021/03/14 08:19:14;;;;;;;9.70;4.00;;;6.40;99.90;;;;;;6129166;23;20473;-87
2021/03/14 08:21:45;;;;;;;10.87;5.30;;;6.40;99.90;;;;;;6105417;23;20421;-87
2021/03/14 08:24:33;;;;;;;12.73;5.10;;;6.50;99.90;;;;;;6104774;23;20412;-87
2021/03/14 08:27:07;;;;;;;12.40;4.97;;;6.60;99.90;;;;;;6104683;23;20892;-87
2021/03/14 08:29:41;;;;;;;7.00;4.40;;;6.60;99.90;;;;;;6105396;23;20502;-87
2021/03/14 08:32:22;;;;;;;11.73;6.23;;;6.70;99.90;;;;;;6140955;23;20396;-87
2021/03/14 08:34:52;;;;;;;11.23;4.80;;;6.80;99.90;;;;;;6129894;23;20917;-87
2021/03/14 08:37:22;;;;;;;10.50;4.90;;;6.90;99.90;;;;;;6129821;23;20436;-87
2021/03/14 08:39:59;;;;;;;8.70;4.93;;;6.90;99.90;;;;;;6129821;23;20514;-87
2021/03/14 08:42:56;;;;;;;11.75;4.90;;;7.00;99.90;;;;;;6129464;23;20422;-87
2021/03/14 08:45:33;;;;;;;10.63;4.73;;;7.00;99.90;;;;;;6129795;23;20165;-87
2021/03/14 08:48:12;;;;;;;10.10;5.00;;;7.10;99.90;;;;;;6131646;23;20776;-87
2021/03/14 08:50:46;;;;;;;9.73;5.57;;;7.10;99.90;;;;;;6135926;23;20417;-87
2021/03/14 08:53:20;;;;;;;13.65;5.40;;;7.10;99.90;;;;;;6135672;23;20465;-87
2021/03/14 08:56:00;;;;;;;10.27;5.00;;;7.30;99.90;;;;;;6136513;23;20162;-88
2021/03/14 08:58:34;;;;;;;6.90;5.10;;;7.30;99.90;;;;;;6136749;23;20474;-89
2021/03/14 09:01:23;;;;;;;14.13;5.30;;;7.30;99.90;;;;;;6136805;23;20408;-88
2021/03/14 09:04:11;;;;;;;10.90;4.70;;;7.30;99.90;;;;;;6135689;23;20424;-88
2021/03/14 09:06:40;;;;;;;9.57;4.20;;;7.40;99.90;;;;;;6148490;23;20404;-88
2021/03/14 09:09:20;;;;;;;12.27;5.00;;;7.40;99.90;;;;;;6135355;23;20443;-87
2021/03/14 09:12:09;;;;;;;10.80;4.10;;;7.40;99.90;;;;;;6133715;23;20424;-87
2021/03/14 09:14:49;;;;;;;10.80;4.63;;;7.50;99.90;;;;;;6134054;23;20421;-87
2021/03/14 09:17:37;;;;;;;8.93;4.37;;;7.60;99.90;;;;;;6142645;23;20424;-87
2021/03/14 09:20:20;;;;;;;11.30;4.20;;;7.60;99.90;;;;;;6136484;23;20407;-87
2021/03/14 09:22:47;;;;;;;12.63;4.50;;;7.70;99.90;;;;;;6136010;23;20411;-87
2021/03/14 09:25:24;;;;;;;10.30;3.63;;;7.70;99.90;;;;;;6135882;23;20413;-87
2021/03/14 09:27:51;;;;;;;11.83;4.97;;;7.80;99.90;;;;;;6135717;23;20464;-88
2021/03/14 09:30:37;;;;;;;9.03;3.90;;;7.80;99.90;;;;;;6136095;23;20417;-88
2021/03/14 09:33:09;;;;;;;9.20;4.37;;;7.80;99.90;;;;;;6137265;23;20440;-88
2021/03/14 09:36:06;;;;;;;8.67;4.57;;;7.90;99.90;;;;;;6125185;23;20409;-87
2021/03/14 09:38:40;;;;;;;5.93;3.33;;;7.90;99.90;;;;;;6146217;23;20429;-87
2021/03/14 09:41:18;;;;;;;6.43;3.20;;;7.90;99.90;;;;;;6134890;23;20416;-87
2021/03/14 09:43:48;;;;;;;7.77;3.60;;;7.90;99.90;;;;;;6134786;23;20412;-87
2021/03/14 09:46:37;;;;;;;4.23;3.00;;;8.00;99.90;;;;;;6134037;23;20416;-86
2021/03/14 09:49:30;;;;;;;5.80;3.10;;;8.00;99.90;;;;;;6122237;23;20491;-87
2021/03/14 09:52:05;;;;;;;10.43;3.80;;;8.10;99.90;;;;;;6135479;23;20424;-86
2021/03/14 09:54:35;;;;;;;9.17;5.30;;;8.20;99.90;;;;;;6159176;23;20413;-87
2021/03/14 09:57:03;;;;;;;8.53;4.03;;;8.30;99.90;;;;;;6135252;23;20441;-87
2021/03/14 09:59:37;;;;;;;6.37;3.50;;;8.30;99.90;;;;;;6135705;23;20441;-87
2021/03/14 10:02:17;;;;;;;6.33;3.30;;;8.40;99.90;;;;;;6135136;23;20480;-87
2021/03/14 10:05:08;;;;;;;7.50;3.40;;;8.40;99.90;;;;;;6104476;23;20777;-87
2021/03/14 10:07:39;;;;;;;6.03;3.03;;;8.50;99.90;;;;;;6134642;23;20445;-87
2021/03/14 10:10:12;;;;;;;7.63;3.27;;;8.60;99.90;;;;;;6159055;23;20494;-87
2021/03/14 10:13:10;;;;;;;4.93;3.27;;;8.70;99.90;;;;;;6132839;23;20418;-86
2021/03/14 10:15:38;;;;;;;6.70;3.60;;;8.90;99.90;;;;;;6134908;23;20421;-87
2021/03/14 10:18:09;;;;;;;5.83;2.80;;;8.90;99.90;;;;;;6135053;23;20452;-87
2021/03/14 10:20:40;;;;;;;5.23;3.07;;;9.00;99.90;;;;;;6135336;23;20409;-86
2021/03/14 10:23:29;;;;;;;7.33;2.87;;;9.00;99.90;;;;;;6135069;23;20457;-86
2021/03/14 10:26:19;;;;;;;5.90;2.53;;;9.00;99.90;;;;;;6134882;23;20413;-86
2021/03/14 10:28:54;;;;;;;6.80;2.67;;;9.00;99.90;;;;;;6134948;23;20454;-87
2021/03/14 10:31:45;;;;;;;6.27;3.20;;;9.10;99.90;;;;;;6135053;23;20420;-87
2021/03/14 10:34:21;;;;;;;5.80;3.20;;;9.10;99.90;;;;;;6158642;23;20982;-87
2021/03/14 10:36:49;;;;;;;7.13;3.93;;;9.10;99.90;;;;;;6133644;23;20571;-86
2021/03/14 10:39:25;;;;;;;4.03;2.37;;;9.20;99.90;;;;;;6134266;23;20440;-86
2021/03/14 10:41:57;;;;;;;3.57;2.90;;;9.20;99.90;;;;;;6155501;23;20444;-86
2021/03/14 10:44:37;;;;;;;5.43;2.72;;;9.20;99.90;;;;;;6130290;23;20426;-85
2021/03/14 10:47:22;;;;;;;8.97;2.90;;;9.30;99.90;;;;;;6129881;23;20513;-86
2021/03/14 10:50:16;;;;;;;4.40;1.77;;;9.30;99.90;;;;;;6130876;23;20421;-86
2021/03/14 10:53:07;;;;;;;5.30;2.77;;;9.30;99.90;;;;;;6129902;23;20453;-86
2021/03/14 10:55:37;;;;;;;6.20;2.42;;;9.30;99.90;;;;;;6128180;23;20418;-86
2021/03/14 10:58:11;;;;;;;1.90;1.40;;;9.40;99.90;;;;;;6141280;23;20225;-86
2021/03/14 11:00:44;;;;;;;5.70;2.33;;;9.40;99.90;;;;;;6130259;23;20955;-86
2021/03/14 11:03:47;;;;;;;6.23;3.23;;;9.40;99.90;;;;;;6130957;23;20501;-86
2021/03/14 11:06:32;;;;;;;5.63;1.77;;;9.40;99.90;;;;;;6133456;23;20958;-86
2021/03/14 11:09:20;;;;;;;4.67;1.90;;;9.40;99.90;;;;;;6135663;23;20445;-86
2021/03/14 11:11:54;;;;;;;4.90;2.20;;;9.50;99.90;;;;;;6134386;23;20908;-87
2021/03/14 11:14:36;;;;;;;4.00;2.20;;;9.60;99.90;;;;;;6135151;23;20397;-87
2021/03/14 11:17:13;;;;;;;5.40;1.90;;;9.70;99.90;;;;;;6134653;23;20520;-86
2021/03/14 11:19:49;;;;;;;5.33;2.07;;;9.70;99.90;;;;;;6133177;23;20492;-86
2021/03/14 11:22:19;;;;;;;5.43;1.83;;;9.80;99.90;;;;;;6157977;23;20414;-86
2021/03/14 11:24:54;;;;;;;2.30;1.70;;;9.80;99.90;;;;;;6133607;23;20417;-86
2021/03/14 11:27:32;;;;;;;3.23;1.77;;;9.80;99.90;;;;;;6133486;23;20464;-86
2021/03/14 11:29:59;;;;;;;4.87;2.30;;;9.90;99.90;;;;;;6133507;23;20417;-85
2021/03/14 11:32:31;;;;;;;4.10;2.10;;;10.00;99.90;;;;;;6133402;23;20425;-86
2021/03/14 11:35:16;;;;;;;4.30;1.80;;;10.10;99.90;;;;;;6133576;23;20500;-86
2021/03/14 11:38:16;;;;;;;3.33;1.50;;;10.10;99.90;;;;;;6133269;23;20456;-86
2021/03/14 11:41:14;;;;;;;3.97;1.60;;;10.10;99.90;;;;;;6135212;23;20409;-86
2021/03/14 11:43:56;;;;;;;6.27;1.43;;;10.00;99.90;;;;;;6143644;23;20396;-86
2021/03/14 11:46:26;;;;;;;4.90;1.40;;;10.00;99.90;;;;;;6134529;23;20420;-85
2021/03/14 11:49:14;;;;;;;5.20;1.97;;;9.90;99.90;;;;;;6133302;23;20441;-85
2021/03/14 11:51:42;;;;;;;3.30;1.30;;;9.90;99.90;;;;;;6134508;23;20469;-86
2021/03/14 11:54:16;;;;;;;2.97;1.40;;;9.90;99.90;;;;;;6133818;23;20405;-85
2021/03/14 11:57:00;;;;;;;2.70;1.40;;;9.90;99.90;;;;;;6134599;23;20459;-86
2021/03/14 11:59:33;;;;;;;3.73;1.53;;;9.90;99.90;;;;;;6133160;23;20845;-85
2021/03/14 12:02:05;;;;;;;3.80;2.67;;;9.90;99.90;;;;;;6156346;23;20449;-85
2021/03/14 12:04:52;;;;;;;3.13;1.50;;;9.90;99.90;;;;;;6144389;23;20401;-86
2021/03/14 12:07:24;;;;;;;3.10;1.30;;;10.00;99.90;;;;;;6134074;23;20406;-85
2021/03/14 12:09:53;;;;;;;3.33;1.20;;;10.10;99.90;;;;;;6133482;23;20417;-85
2021/03/14 12:12:21;;;;;;;2.77;1.40;;;10.10;99.90;;;;;;6133427;23;20483;-85
2021/03/14 12:14:58;;;;;;;4.60;1.60;;;10.20;99.90;;;;;;6132875;23;20440;-86
2021/03/14 12:17:31;;;;;;;3.20;1.60;;;10.20;99.90;;;;;;6133296;23;20469;-85
2021/03/14 12:20:21;;;;;;;5.37;1.97;;;10.20;99.90;;;;;;6128761;23;20417;-86
2021/03/14 12:23:05;;;;;;;2.13;0.83;;;10.20;99.90;;;;;;6133812;23;20418;-85
2021/03/14 12:25:38;;;;;;;1.33;0.70;;;10.10;99.90;;;;;;6133996;23;20416;-85
2021/03/14 12:28:13;;;;;;;1.73;0.83;;;9.80;99.90;;;;;;6134451;23;20447;-85
2021/03/14 12:30:44;;;;;;;1.70;0.87;;;9.50;99.90;;;;;;6135112;23;20414;-86
2021/03/14 12:33:12;;;;;;;1.90;1.10;;;9.20;99.90;;;;;;6133685;23;20434;-85
2021/03/14 12:35:40;;;;;;;0.90;0.60;;;9.00;99.90;;;;;;6134296;23;20181;-85
2021/03/14 12:38:13;;;;;;;2.13;0.77;;;8.70;99.90;;;;;;6134312;23;20848;-86
2021/03/14 12:40:45;;;;;;;1.23;0.87;;;8.50;99.90;;;;;;6135564;23;20420;-86
2021/03/14 12:43:13;;;;;;;1.60;0.88;;;8.40;99.90;;;;;;6133910;23;20446;-86
2021/03/14 12:45:49;;;;;;;2.40;1.10;;;8.40;99.90;;;;;;6134928;23;20182;-86
2021/03/14 12:48:17;;;;;;;2.30;0.77;;;8.20;99.90;;;;;;6135025;23;20441;-86
2021/03/14 12:50:48;;;;;;;4.10;1.50;;;8.10;99.90;;;;;;6134496;23;20449;-86
2021/03/14 12:53:17;;;;;;;2.47;1.40;;;8.00;99.90;;;;;;6131533;23;20763;-86
2021/03/14 12:55:46;;;;;;;3.93;1.30;;;7.90;99.90;;;;;;6157281;23;20423;-86
2021/03/14 12:58:13;;;;;;;2.43;1.60;;;7.90;99.90;;;;;;6156503;23;20476;-86
2021/03/14 13:00:49;;;;;;;2.20;1.40;;;7.80;99.90;;;;;;6131619;23;20425;-86
2021/03/14 13:03:17;;;;;;;2.77;1.40;;;7.90;99.90;;;;;;6133158;23;20492;-86
2021/03/14 13:05:45;;;;;;;3.50;1.53;;;7.90;99.90;;;;;;6156786;23;20413;-86
2021/03/14 13:08:13;;;;;;;2.20;1.60;;;8.00;99.90;;;;;;6156205;23;20437;-86
2021/03/14 13:10:42;;;;;;;4.90;1.67;;;8.10;99.90;;;;;;6132189;23;20410;-86
2021/03/14 13:13:09;;;;;;;3.70;1.70;;;8.30;99.90;;;;;;6134565;23;20410;-86
2021/03/14 13:15:40;;;;;;;3.70;2.10;;;8.40;99.90;;;;;;6134203;23;20892;-86
2021/03/14 13:18:09;;;;;;;4.00;2.57;;;8.50;99.90;;;;;;6134471;23;20452;-85
2021/03/14 13:20:37;;;;;;;6.23;2.70;;;8.70;99.90;;;;;;6134624;23;20877;-86
2021/03/14 13:23:15;;;;;;;3.67;1.80;;;8.80;99.90;;;;;;6135687;23;20405;-86
2021/03/14 13:25:43;;;;;;;2.43;1.27;;;9.00;99.90;;;;;;6133687;23;20441;-86
2021/03/14 13:28:10;;;;;;;3.73;2.03;;;9.20;99.90;;;;;;6144836;23;20512;-86
2021/03/14 13:30:37;;;;;;;2.30;1.60;;;9.30;99.90;;;;;;6157732;23;20432;-86
2021/03/14 13:33:05;;;;;;;2.80;1.50;;;9.40;99.90;;;;;;6158167;23;20456;-86
2021/03/14 13:35:34;;;;;;;2.10;1.20;;;9.50;99.90;;;;;;6133835;23;20458;-86
2021/03/14 13:38:02;;;;;;;2.80;1.47;;;9.50;99.90;;;;;;6133996;23;20940;-86
2021/03/14 13:40:32;;;;;;;2.63;1.50;;;9.60;99.90;;;;;;6131835;23;20439;-85
2021/03/14 13:43:00;;;;;;;2.30;1.20;;;9.60;99.90;;;;;;6131232;23;20418;-86
2021/03/14 13:45:27;;;;;;;4.70;1.50;;;9.70;99.90;;;;;;6131365;23;20497;-86
2021/03/14 13:47:56;;;;;;;4.10;2.10;;;9.80;99.90;;;;;;6131054;23;20488;-86
2021/03/14 13:50:24;;;;;;;2.50;2.00;;;9.90;99.90;;;;;;6130671;23;20904;-86
2021/03/14 13:53:10;;;;;;;3.40;1.30;;;10.10;99.90;;;;;;6155826;23;20442;-86
2021/03/14 13:56:08;;;;;;;3.10;1.90;;;10.20;99.90;;;;;;6124181;23;20421;-86
2021/03/14 13:58:40;;;;;;;2.77;1.40;;;10.30;99.90;;;;;;6072233;23;20455;-86
2021/03/14 14:01:10;;;;;;;4.53;1.90;;;10.40;99.90;;;;;;6071734;23;20978;-86
2021/03/14 14:03:39;;;;;;;2.73;1.47;;;10.40;99.90;;;;;;6048078;23;20426;-86
2021/03/14 14:06:07;;;;;;;2.77;1.57;;;10.40;99.90;;;;;;6061578;23;20429;-85
2021/03/14 14:08:36;;;;;;;4.05;1.70;;;10.40;99.90;;;;;;6153695;23;20933;-85
2021/03/14 14:11:04;;;;;;;3.30;1.40;;;10.40;99.90;;;;;;6130601;23;20177;-85
2021/03/14 14:13:34;;;;;;;3.50;1.40;;;10.50;99.90;;;;;;6130238;23;20421;-85
2021/03/14 14:16:02;;;;;;;2.55;1.23;;;10.50;99.90;;;;;;6130490;23;20757;-85
2021/03/14 14:18:35;;;;;;;3.40;1.30;;;10.60;99.90;;;;;;6130506;23;20265;-86
2021/03/14 14:21:03;;;;;;;1.73;1.20;;;10.60;99.90;;;;;;6130857;23;20422;-86
2021/03/14 14:23:30;;;;;;;1.60;1.10;;;10.60;99.90;;;;;;6130974;23;20417;-86
2021/03/14 14:25:59;;;;;;;5.90;1.40;;;10.60;99.90;;;;;;6130806;23;20797;-86
2021/03/14 14:28:40;;;;;;;5.50;1.90;;;10.60;99.90;;;;;;6134016;23;20813;-85
2021/03/14 14:31:08;;;;;;;3.40;1.40;;;10.60;99.90;;;;;;6157981;23;20409;-86
2021/03/14 14:33:35;;;;;;;3.67;1.70;;;10.60;99.90;;;;;;6133585;23;20432;-85
2021/03/14 14:36:25;;;;;;;4.30;1.57;;;10.60;99.90;;;;;;6134157;23;20468;-86
2021/03/14 14:39:07;;;;;;;3.93;1.90;;;10.50;99.90;;;;;;6082654;23;20788;-86
2021/03/14 14:41:35;;;;;;;3.23;2.20;;;10.40;99.90;;;;;;6133891;23;20428;-85
2021/03/14 14:44:22;;;;;;;3.43;1.47;;;10.30;99.90;;;;;;6133020;23;20421;-86
2021/03/14 14:46:54;;;;;;;2.90;1.63;;;10.20;99.90;;;;;;6133027;23;20414;-85
2021/03/14 14:49:23;;;;;;;6.43;1.63;;;10.10;99.90;;;;;;6133113;23;20472;-85
2021/03/14 14:51:52;;;;;;;4.53;2.03;;;10.10;99.90;;;;;;6158168;23;20405;-86
2021/03/14 14:54:20;;;;;;;4.00;1.60;;;10.00;99.90;;;;;;6133679;23;20417;-86
2021/03/14 14:56:48;;;;;;;3.27;1.60;;;10.00;99.90;;;;;;6132581;23;20434;-85
2021/03/14 14:59:17;;;;;;;3.50;1.70;;;10.00;99.90;;;;;;6132515;23;20449;-86
2021/03/14 15:01:44;;;;;;;4.60;1.57;;;10.00;99.90;;;;;;6156778;23;20413;-86
2021/03/14 15:04:15;;;;;;;3.60;1.63;;;10.00;99.90;;;;;;6132965;23;20432;-85
2021/03/14 15:06:49;;;;;;;3.10;1.20;;;9.90;99.90;;;;;;6130201;23;20916;-85
2021/03/14 15:09:16;;;;;;;4.00;1.50;;;9.90;99.90;;;;;;6132555;23;20976;-86
2021/03/14 15:11:45;;;;;;;6.03;1.90;;;9.80;99.90;;;;;;6142567;23;20382;-85
2021/03/14 15:14:13;;;;;;;3.63;1.27;;;9.80;99.90;;;;;;6130398;23;20924;-85
2021/03/14 15:16:42;;;;;;;6.23;1.70;;;9.90;99.90;;;;;;6154811;23;20406;-85
2021/03/14 15:19:09;;;;;;;3.90;1.80;;;9.90;99.90;;;;;;6130614;23;20456;-85
2021/03/14 15:22:06;;;;;;;2.00;1.77;;;9.90;99.90;;;;;;6130868;23;21078;-85
2021/03/14 15:24:58;;;;;;;5.23;1.90;;;10.00;99.90;;;;;;6142804;23;20492;-85
2021/03/14 15:27:39;;;;;;;6.90;2.60;;;9.90;99.90;;;;;;6132316;23;20495;-85
2021/03/14 15:30:09;;;;;;;3.60;1.57;;;9.90;99.90;;;;;;6132433;23;20418;-85
2021/03/14 15:32:37;;;;;;;2.80;2.10;;;9.80;99.90;;;;;;6138573;23;20417;-86
2021/03/14 15:35:07;;;;;;;4.50;2.17;;;9.80;99.90;;;;;;6132890;23;20414;-87
2021/03/14 15:38:43;;;;;;;6.97;2.13;;;9.70;99.90;;;;;;6133714;23;20488;-85
2021/03/14 15:41:11;;;;;;;7.03;2.40;;;9.70;99.90;;;;;;6131436;23;20421;-85
2021/03/14 15:43:41;;;;;;;3.17;1.73;;;9.70;99.90;;;;;;6141841;23;20405;-85
2021/03/14 15:46:10;;;;;;;3.40;1.63;;;9.70;99.90;;;;;;6132399;23;20432;-85
2021/03/14 15:48:38;;;;;;;5.73;1.80;;;9.70;99.90;;;;;;6132060;23;20437;-85
2021/03/14 15:55:09;;;;;;;5.20;2.27;;;9.70;99.90;;;;;;6044543;23;20413;-85
2021/03/14 15:58:08;;;;;;;;;;;;;;;;;;;;;
2021/03/14 16:01:01;;;;;;;5.90;2.20;;;9.60;99.90;;;;;;6134219;23;20484;-85